Paramount Helsinki — 2CWB3 — position and weather

sailwx.info

Track history (hours):
 
Tides and Currents Weather Stations Pressure Air Temp Water Temp Dewpoint Dewpoint Depression Visibility Wind Speed Wind Dir Waves Ship Positions

Paramount Helsinki

Last reported at 2016-Aug-05 20:33 UTC. Time now 2016-Aug-24 23:18 UTC.
Position N 43°31' W 066°60'.
Warning: this ship's position is 19 days out of date.

Length 250 m; draft 8.5 m.

Type: Tanker. MMSI: 235076275.

Date/timePositionNaut miles runAvg speedWind from/ knotsBaromVisibWave heightAir tempDewpointWater temp
2016-Aug-05 20:33N 43°31' W 066°60'1615.6
2016-Aug-05 19:33N 43°47' W 066°60'  
2016-Jul-30 18:32N 26°53' W 079°24'1515.3
2016-Jul-30 17:33N 26°38' W 079°26'2015.6
2016-Jul-30 16:15N 26°18' W 079°28'1216.8
2016-Jul-30 15:33N 26°06' W 079°30'1717.3
2016-Jul-30 14:33N 25°49' W 079°33'  
2016-Jul-28 05:21N 29°22' W 089°33'1011.9
2016-Jul-28 04:33N 29°29' W 089°41'1813.3
2016-Jul-28 03:13N 29°39' W 089°57'812.5
2016-Jul-28 02:33N 29°47' W 090°01'3 2.9
2016-Jul-28 01:33N 29°50' W 090°00'0 0.0
2016-Jul-28 00:33N 29°50' W 090°00'0 0.0
2016-Jul-27 23:33N 29°50' W 090°00'0 0.0
2016-Jul-27 22:33N 29°50' W 090°00'0 0.0
2016-Jul-27 21:33N 29°50' W 090°00'0 0.0
2016-Jul-27 20:33N 29°50' W 090°00'0 0.0
2016-Jul-27 18:24N 29°50' W 090°00'0 0.0
2016-Jul-27 17:33N 29°50' W 090°00'0 0.0
2016-Jul-27 16:30N 29°50' W 090°00'0 0.0
2016-Jul-27 15:33N 29°50' W 090°00'0 0.0
2016-Jul-27 14:33N 29°50' W 090°00'0 0.3
2016-Jul-27 13:33N 29°50' W 089°60'6 6.4
2016-Jul-27 12:34N 29°55' W 089°56'8 7.9
2016-Jul-27 11:33N 29°55' W 090°05'6 6.4
2016-Jul-27 10:33N 29°55' W 090°13'8 7.3
2016-Jul-27 09:24N 29°56' W 090°23'  
Track history (hours):
 
Tides and Currents Weather Stations Pressure Air Temp Water Temp Dewpoint Dewpoint Depression Visibility Wind Speed Wind Dir Waves Ship Positions

Paramount Helsinki

Last reported at 2016-Aug-05 20:33 UTC. Time now 2016-Aug-24 23:18 UTC.
Position N 43°31' W 066°60'.
Warning: this ship's position is 19 days out of date.

Length 250 m; draft 8.5 m.

Type: Tanker. MMSI: 235076275.

Date/timePositionNaut miles runAvg speedWind from/ knotsBaromVisibWave heightAir tempDewpointWater temp
2016-Aug-05 20:33N 43°31' W 066°60'1615.6
2016-Aug-05 19:33N 43°47' W 066°60'  
2016-Jul-30 18:32N 26°53' W 079°24'1515.3
2016-Jul-30 17:33N 26°38' W 079°26'2015.6
2016-Jul-30 16:15N 26°18' W 079°28'1216.8
2016-Jul-30 15:33N 26°06' W 079°30'1717.3
2016-Jul-30 14:33N 25°49' W 079°33'  
2016-Jul-28 05:21N 29°22' W 089°33'1011.9
2016-Jul-28 04:33N 29°29' W 089°41'1813.3
2016-Jul-28 03:13N 29°39' W 089°57'812.5
2016-Jul-28 02:33N 29°47' W 090°01'3 2.9
2016-Jul-28 01:33N 29°50' W 090°00'0 0.0
2016-Jul-28 00:33N 29°50' W 090°00'0 0.0
2016-Jul-27 23:33N 29°50' W 090°00'0 0.0
2016-Jul-27 22:33N 29°50' W 090°00'0 0.0
2016-Jul-27 21:33N 29°50' W 090°00'0 0.0
2016-Jul-27 20:33N 29°50' W 090°00'0 0.0
2016-Jul-27 18:24N 29°50' W 090°00'0 0.0
2016-Jul-27 17:33N 29°50' W 090°00'0 0.0
2016-Jul-27 16:30N 29°50' W 090°00'0 0.0
2016-Jul-27 15:33N 29°50' W 090°00'0 0.0
2016-Jul-27 14:33N 29°50' W 090°00'0 0.3
2016-Jul-27 13:33N 29°50' W 089°60'6 6.4
2016-Jul-27 12:34N 29°55' W 089°56'8 7.9
2016-Jul-27 11:33N 29°55' W 090°05'6 6.4
2016-Jul-27 10:33N 29°55' W 090°13'8 7.3
2016-Jul-27 09:24N 29°56' W 090°23'  

Dump ship's entire track history